INFORMACIÓN METAR y TAF
METAR FOR LKPR
ADDS - METARS form results

(0333 UTC 27 October 2021)
Data provider http://aviationweather.gov/metar/data/
 
METAR text: LKPR 270330Z 23012KT 5000 BR FEW003 06/06 Q1025 NOSIG
Conditions at: LKPR (PRAGUE/RUZYNE , CZ) observed 0330 UTC 27 October 2021
Temperature: 6.0°C (43°F)
Dewpoint: 6.0°C (43°F) [RH = 100%]
Pressure (altimeter): 30.27 inches Hg (1025.0 mb)
Winds: from the SW (230 degrees) at 14 MPH (12 knots; 6.2 m/s)
Visibility: 3 miles ( 5 km)
Ceiling: at least 12,000 feet AGL
Clouds: few clouds at 300 feet AGL
Weather: BR  (mist)

METAR text: LKPR 270327Z 23012KT 5000 BR FEW003 06/06 Q1025 RMK REG QNH 1023
Conditions at: LKPR (PRAGUE/RUZYNE , CZ) observed 0327 UTC 27 October 2021
Temperature: 6.0°C (43°F)
Dewpoint: 6.0°C (43°F) [RH = 100%]
Pressure (altimeter): 30.27 inches Hg (1025.0 mb)
Winds: from the SW (230 degrees) at 14 MPH (12 knots; 6.2 m/s)
Visibility: 3 miles ( 5 km)
Ceiling: at least 12,000 feet AGL
Clouds: few clouds at 300 feet AGL
Weather: BR  (mist)

METAR text: LKPR 270300Z 21011KT 3400 BR BKN003 06/05 Q1025 TEMPO 1500 BR BKN002
Conditions at: LKPR (PRAGUE/RUZYNE , CZ) observed 0300 UTC 27 October 2021
Temperature: 6.0°C (43°F)
Dewpoint: 5.0°C (41°F) [RH = 93%]
Pressure (altimeter): 30.27 inches Hg (1025.0 mb)
Winds: from the SSW (210 degrees) at 13 MPH (11 knots; 5.7 m/s)
Visibility: 2.11 miles (3.40 km)
Ceiling: 300 feet AGL
Clouds: broken clouds at 300 feet AGL
Weather: BR  (mist)

METAR text: LKPR 270251Z 21011KT 5000 2000NE BR SCT005 06/05 Q1025 RMK REG QNH 1023
Conditions at: LKPR (PRAGUE/RUZYNE , CZ) observed 0251 UTC 27 October 2021
Temperature: 6.0°C (43°F)
Dewpoint: 5.0°C (41°F) [RH = 93%]
Pressure (altimeter): 30.27 inches Hg (1025.0 mb)
Winds: from the SSW (210 degrees) at 13 MPH (11 knots; 5.7 m/s)
Visibility: 3 miles ( 5 km)
Ceiling: at least 12,000 feet AGL
Clouds: scattered clouds at 500 feet AGL
Weather: BR  (mist)

Forecast for: LKPR (PRAGUE/RUZYNE , CZ)
Text: TAF LKPR 262300Z 2700/2806 24010KT 5000 BR NSC
Forecast period: 0000 to 0100 UTC 27 October 2021
Forecast type: FROM: standard forecast or significant change
Winds: from the WSW (240 degrees) at 12 MPH (10 knots; 5.1 m/s)
Visibility: 3 miles (5 km)
Ceiling: unknown
Clouds: missing
Weather: BR  (mist)
Text: BECMG 2701/2703 1500 BR SCT002
Forecast period: 0100 to 0300 UTC 27 October 2021
Forecast type: BECOMING: Conditions expected to become as follows by 0300 UTC 27 October 2021
Winds: from the WSW (240 degrees) at 12 MPH (10 knots; 5.1 m/s)
Visibility: 0.93 miles (1.50 km)
Ceiling: at least 12,000 feet AGL
Clouds: scattered clouds at 200 feet AGL
Weather: BR  (mist)
Text: BECMG 2703/2705 0400 FG BKN001
Forecast period: 0300 to 0800 UTC 27 October 2021
Forecast type: BECOMING: Conditions expected to become as follows by 0500 UTC 27 October 2021
Winds: from the WSW (240 degrees) at 12 MPH (10 knots; 5.1 m/s)
Visibility: 0.25 miles (0.40 km)
Ceiling: 100 feet AGL
Clouds: broken clouds at 100 feet AGL
Weather: FG  (fog)
Text: TEMPO 2705/2708 0600 FG BKN002
Forecast period: 0500 to 0800 UTC 27 October 2021
Forecast type: TEMPORARY: The following changes expected for less than half the time period
Visibility: 0.37 miles (0.60 km)
Ceiling: 200 feet AGL
Clouds: broken clouds at 200 feet AGL
Weather: FG  (fog)
Text: BECMG 2708/2710 CAVOK
Forecast period: 0800 UTC 27 October 2021 to 0100 UTC 28 October 2021
Forecast type: BECOMING: Conditions expected to become as follows by 1000 UTC 27 October 2021
Winds: from the WSW (240 degrees) at 12 MPH (10 knots; 5.1 m/s)
Visibility: 6 or more miles (10+ km)
Ceiling: unknown
Clouds: missing
Weather: NSW  (no significant weather)
Text: BECMG 2801/2803 14004KT 0300 FG OVC001
Forecast period: 0100 to 0600 UTC 28 October 2021
Forecast type: BECOMING: Conditions expected to become as follows by 0300 UTC 28 October 2021
Winds: from the SE (140 degrees) at 5 MPH (4 knots; 2.1 m/s)
Visibility: 0.19 miles (0.31 km)
Ceiling: 100 feet AGL
Clouds: overcast cloud deck at 100 feet AGL
Weather: FG  (fog)

 MAPA DE AEROPUERTO

 INFORMACIÓN DE PISTA